Time;durP1;ratioP1;P1;durP2;ratioP2;P2;SDS_P1;SDS_P2;PMS_P1;PMS_P2;Temp;Humidity;BMP_temperature;BMP_pressure;BME280_temperature;BME280_humidity;BME280_pressure;Samples;Min_cycle;Max_cycle;Signal;HPM_P1;HPM_P2
2023/07/06 00:00:33;;;;;;;16.60;16.10;;;21.70;93.00;;;;;;5000613;28;20513;-54
2023/07/06 00:03:00;;;;;;;17.97;17.37;;;21.60;93.00;;;;;;4993901;28;20497;-51
2023/07/06 00:05:27;;;;;;;16.00;15.60;;;21.70;92.90;;;;;;4993832;28;20522;-54
2023/07/06 00:07:54;;;;;;;16.70;16.10;;;21.70;92.90;;;;;;5000094;28;20836;-50
2023/07/06 00:10:20;;;;;;;17.00;16.50;;;21.70;92.90;;;;;;5002247;28;20538;-51
2023/07/06 00:12:47;;;;;;;16.97;16.23;;;21.70;93.10;;;;;;4993841;28;20513;-54
2023/07/06 00:15:14;;;;;;;16.17;15.67;;;21.60;93.10;;;;;;4993804;28;20570;-51
2023/07/06 00:17:42;;;;;;;16.57;16.00;;;21.60;93.30;;;;;;4997952;28;20888;-51
2023/07/06 00:20:12;;;;;;;19.10;18.30;;;21.60;93.20;;;;;;5013123;28;20537;-50
2023/07/06 00:22:39;;;;;;;16.27;15.80;;;21.60;93.30;;;;;;5013086;28;20486;-54
2023/07/06 00:25:07;;;;;;;16.83;16.20;;;21.60;93.20;;;;;;5013114;28;20446;-50
2023/07/06 00:27:34;;;;;;;16.80;16.30;;;21.60;93.30;;;;;;5008871;28;20510;-51
2023/07/06 00:30:15;;;;;;;16.87;16.37;;;21.60;93.30;;;;;;4993467;28;20530;-53
2023/07/06 00:32:44;;;;;;;17.87;17.27;;;21.60;93.40;;;;;;4993458;28;21028;-49
2023/07/06 00:35:11;;;;;;;15.77;15.13;;;21.60;93.50;;;;;;4993361;28;20657;-50
2023/07/06 00:37:38;;;;;;;16.83;16.13;;;21.60;93.50;;;;;;4996749;28;20466;-56
2023/07/06 00:40:09;;;;;;;16.07;15.57;;;21.60;93.40;;;;;;5012728;28;20450;-49
2023/07/06 00:42:36;;;;;;;17.70;16.70;;;21.60;93.50;;;;;;5012895;28;20510;-48
2023/07/06 00:45:04;;;;;;;17.20;16.60;;;21.60;93.50;;;;;;5012647;28;20454;-49
2023/07/06 00:47:34;;;;;;;17.60;16.90;;;21.60;93.50;;;;;;5009579;28;20472;-52
2023/07/06 00:50:07;;;;;;;17.33;16.63;;;21.60;93.50;;;;;;5011395;28;20885;-50
2023/07/06 00:52:37;;;;;;;17.20;16.50;;;21.60;93.50;;;;;;5008284;28;20871;-51
2023/07/06 00:55:06;;;;;;;17.27;16.77;;;21.60;93.40;;;;;;4992900;28;20682;-51
2023/07/06 00:57:35;;;;;;;17.10;16.60;;;21.50;93.40;;;;;;4994902;28;20978;-52
2023/07/06 01:00:04;;;;;;;20.53;19.47;;;21.60;93.60;;;;;;5012438;28;20450;-50
2023/07/06 01:02:31;;;;;;;16.20;15.70;;;21.60;93.60;;;;;;5011704;28;20453;-50
2023/07/06 01:04:58;;;;;;;16.60;15.90;;;21.60;93.50;;;;;;5012356;28;20501;-49
2023/07/06 01:07:31;;;;;;;17.50;16.93;;;21.50;93.40;;;;;;5010887;28;20928;-49
2023/07/06 01:09:59;;;;;;;17.13;16.63;;;21.50;93.40;;;;;;5002776;28;21034;-50
2023/07/06 01:12:26;;;;;;;17.53;16.83;;;21.50;93.50;;;;;;5012303;28;20473;-50
2023/07/06 01:14:54;;;;;;;17.10;16.60;;;21.50;93.50;;;;;;5012030;28;20906;-51
2023/07/06 01:17:27;;;;;;;17.53;16.80;;;21.50;93.50;;;;;;5011219;28;20549;-54
2023/07/06 01:20:13;;;;;;;17.73;17.17;;;21.50;93.50;;;;;;4992580;28;20957;-51
2023/07/06 01:23:09;;;;;;;17.70;17.10;;;21.50;93.50;;;;;;4992637;28;20902;-52
2023/07/06 01:25:56;;;;;;;17.00;16.40;;;21.50;93.50;;;;;;4992527;28;20529;-53
2023/07/06 01:28:55;;;;;;;16.70;16.20;;;21.50;93.40;;;;;;4992462;28;20502;-52
2023/07/06 01:31:38;;;;;;;16.80;16.30;;;21.50;93.40;;;;;;4992308;28;20530;-53
2023/07/06 01:34:15;;;;;;;16.93;16.33;;;21.50;93.60;;;;;;4992352;28;20485;-52
2023/07/06 01:36:47;;;;;;;18.00;17.20;;;21.50;93.60;;;;;;4992843;28;20537;-55
2023/07/06 01:39:17;;;;;;;17.47;16.57;;;21.50;93.50;;;;;;4992306;28;20449;-55
2023/07/06 01:41:45;;;;;;;17.60;17.00;;;21.50;93.50;;;;;;4992265;28;20541;-52
2023/07/06 01:44:13;;;;;;;18.13;17.43;;;21.50;93.40;;;;;;4992124;28;20474;-53
2023/07/06 01:46:46;;;;;;;19.13;18.47;;;21.50;93.40;;;;;;4992175;28;20875;-52
2023/07/06 01:49:13;;;;;;;17.03;16.53;;;21.40;93.30;;;;;;5011781;28;20533;-52
2023/07/06 01:51:48;;;;;;;18.23;17.63;;;21.40;93.40;;;;;;5011664;28;20450;-56
2023/07/06 01:54:21;;;;;;;18.40;17.60;;;21.40;93.40;;;;;;5012028;28;20437;-51
2023/07/06 01:56:54;;;;;;;18.23;17.63;;;21.40;93.40;;;;;;5009962;28;20542;-51
2023/07/06 01:59:23;;;;;;;17.80;17.00;;;21.40;93.30;;;;;;4992128;28;20478;-52
2023/07/06 02:02:00;;;;;;;18.03;17.33;;;21.40;93.40;;;;;;4992105;28;20603;-55
2023/07/06 02:04:30;;;;;;;18.23;17.53;;;21.40;93.30;;;;;;4992153;28;20521;-52
2023/07/06 02:06:59;;;;;;;21.00;20.30;;;21.40;93.20;;;;;;5007157;28;20937;-51
2023/07/06 02:09:26;;;;;;;22.77;21.77;;;21.40;93.20;;;;;;5011494;28;20488;-54
2023/07/06 02:11:53;;;;;;;18.63;17.93;;;21.40;93.10;;;;;;5011560;28;20552;-56
2023/07/06 02:14:21;;;;;;;18.37;17.50;;;21.40;93.20;;;;;;5013487;28;20533;-52
2023/07/06 02:16:50;;;;;;;18.20;17.50;;;21.40;93.10;;;;;;5001014;28;20518;-55
2023/07/06 02:19:20;;;;;;;17.97;17.37;;;21.40;93.00;;;;;;4995800;28;20458;-51
2023/07/06 02:21:49;;;;;;;18.00;17.40;;;21.40;93.00;;;;;;4996158;28;20490;-52
2023/07/06 02:24:17;;;;;;;18.53;17.73;;;21.40;93.00;;;;;;4995836;28;20530;-51
2023/07/06 02:26:44;;;;;;;18.20;17.40;;;21.40;92.90;;;;;;4996500;28;20467;-52
2023/07/06 02:29:11;;;;;;;19.30;18.30;;;21.40;92.90;;;;;;4995625;28;20889;-53
2023/07/06 02:31:38;;;;;;;17.97;17.30;;;21.40;92.80;;;;;;4995781;28;20451;-51
2023/07/06 02:34:05;;;;;;;18.00;17.20;;;21.40;92.80;;;;;;4995557;28;20529;-49
2023/07/06 02:36:33;;;;;;;17.80;17.20;;;21.30;92.60;;;;;;5006702;28;20574;-50
2023/07/06 02:39:00;;;;;;;18.90;18.10;;;21.40;92.60;;;;;;5014989;28;20446;-51
2023/07/06 02:41:27;;;;;;;18.13;17.43;;;21.30;92.50;;;;;;5014951;28;20453;-48
2023/07/06 02:43:53;;;;;;;18.03;17.40;;;21.30;92.40;;;;;;5014949;28;20481;-53
2023/07/06 02:46:20;;;;;;;18.33;17.63;;;21.30;92.40;;;;;;5004739;28;20481;-55
2023/07/06 02:48:48;;;;;;;18.67;17.97;;;21.30;92.20;;;;;;4995237;28;20533;-53
2023/07/06 02:51:15;;;;;;;17.83;17.13;;;21.30;92.20;;;;;;4995266;28;20455;-56
2023/07/06 02:53:43;;;;;;;18.57;17.87;;;21.30;92.10;;;;;;4995191;28;20906;-51
2023/07/06 02:56:10;;;;;;;18.97;18.27;;;21.30;92.10;;;;;;5002833;28;20567;-52
2023/07/06 02:58:37;;;;;;;17.90;17.20;;;21.30;92.10;;;;;;5014532;28;20545;-50
2023/07/06 03:01:04;;;;;;;18.30;17.70;;;21.30;92.00;;;;;;5014606;28;20560;-55
2023/07/06 03:03:31;;;;;;;18.77;17.97;;;21.30;92.10;;;;;;5014362;28;20450;-51
2023/07/06 03:06:01;;;;;;;19.17;18.27;;;21.30;92.00;;;;;;4994931;28;20471;-50
2023/07/06 03:08:28;;;;;;;18.10;17.40;;;21.30;91.90;;;;;;4994960;28;20483;-51
2023/07/06 03:10:56;;;;;;;18.93;18.23;;;21.30;91.90;;;;;;4994808;28;20485;-54
2023/07/06 03:13:28;;;;;;;19.03;18.23;;;21.30;91.90;;;;;;5006887;28;20533;-54
2023/07/06 03:15:58;;;;;;;20.43;19.60;;;21.30;91.80;;;;;;5014649;28;20851;-55
2023/07/06 03:18:25;;;;;;;19.30;18.50;;;21.30;91.80;;;;;;5014203;28;20473;-54
2023/07/06 03:20:53;;;;;;;19.10;18.40;;;21.30;91.80;;;;;;5014260;28;20446;-52
2023/07/06 03:23:21;;;;;;;18.53;17.83;;;21.30;91.80;;;;;;5013690;28;20537;-55
2023/07/06 03:25:51;;;;;;;19.97;19.03;;;21.30;92.00;;;;;;5013493;28;20445;-56
2023/07/06 03:28:20;;;;;;;18.77;18.07;;;21.30;92.40;;;;;;5014319;28;20462;-53
2023/07/06 03:30:53;;;;;;;18.40;17.70;;;21.30;92.60;;;;;;5014163;28;20891;-55
2023/07/06 03:33:20;;;;;;;19.20;18.17;;;21.30;92.60;;;;;;5009722;28;20482;-53
2023/07/06 03:35:47;;;;;;;18.70;18.00;;;21.30;92.60;;;;;;5005382;28;20945;-55
2023/07/06 03:38:14;;;;;;;19.13;18.23;;;21.30;92.50;;;;;;4994733;28;20503;-53
2023/07/06 03:40:41;;;;;;;18.87;17.63;;;21.20;92.30;;;;;;4994238;28;20479;-53
2023/07/06 03:43:08;;;;;;;19.67;18.73;;;21.20;92.20;;;;;;5003501;28;20532;-54
2023/07/06 03:45:36;;;;;;;19.10;18.30;;;21.20;92.50;;;;;;5013775;28;20442;-54
2023/07/06 03:48:04;;;;;;;18.50;17.60;;;21.20;92.10;;;;;;5013497;28;20477;-54
2023/07/06 03:50:31;;;;;;;19.23;18.30;;;21.10;91.90;;;;;;5013807;28;20448;-54
2023/07/06 03:52:58;;;;;;;18.40;17.80;;;21.10;91.90;;;;;;5013065;28;20478;-55
2023/07/06 03:55:26;;;;;;;18.80;18.00;;;21.10;91.80;;;;;;5013803;28;20493;-56
2023/07/06 03:57:53;;;;;;;19.17;18.27;;;21.10;91.70;;;;;;5013313;28;20696;-55
2023/07/06 04:00:22;;;;;;;20.50;19.70;;;21.10;91.70;;;;;;5013726;28;20500;-54
2023/07/06 04:02:51;;;;;;;20.40;19.50;;;21.10;91.70;;;;;;5008005;28;20451;-56
2023/07/06 04:05:22;;;;;;;20.33;19.40;;;21.10;91.60;;;;;;5006168;28;20857;-54
2023/07/06 04:07:52;;;;;;;21.70;20.37;;;21.10;91.60;;;;;;5010585;28;20925;-55
2023/07/06 04:10:20;;;;;;;21.77;20.67;;;21.10;91.60;;;;;;5013416;28;20482;-54
2023/07/06 04:12:48;;;;;;;20.80;20.00;;;21.10;91.60;;;;;;5007341;28;20442;-56
2023/07/06 04:15:17;;;;;;;24.07;22.40;;;21.10;91.60;;;;;;4993710;28;20482;-52
2023/07/06 04:17:44;;;;;;;21.10;20.30;;;21.10;91.50;;;;;;4993604;28;20470;-54
2023/07/06 04:20:19;;;;;;;22.20;20.90;;;21.20;91.60;;;;;;4993597;28;20479;-56
2023/07/06 04:22:46;;;;;;;22.30;21.30;;;21.20;94.60;;;;;;4998820;28;20957;-53
2023/07/06 04:25:15;;;;;;;23.83;22.40;;;21.20;96.30;;;;;;5012994;28;20453;-52
2023/07/06 04:27:42;;;;;;;22.70;21.23;;;21.10;96.20;;;;;;5013056;28;20521;-50
2023/07/06 04:30:11;;;;;;;21.13;19.93;;;21.10;96.10;;;;;;5012934;28;20460;-50
2023/07/06 04:32:38;;;;;;;22.03;20.83;;;21.10;96.30;;;;;;5012901;28;20533;-52
2023/07/06 04:35:06;;;;;;;23.40;22.10;;;21.10;95.90;;;;;;5012856;28;21007;-50
2023/07/06 04:37:34;;;;;;;23.13;22.03;;;21.10;95.30;;;;;;5011767;28;20486;-51
2023/07/06 04:40:11;;;;;;;21.67;20.67;;;21.20;94.80;;;;;;5012779;28;20478;-52
2023/07/06 04:42:39;;;;;;;21.70;20.60;;;21.20;94.40;;;;;;5012874;28;20569;-50
2023/07/06 04:45:08;;;;;;;22.33;21.33;;;21.20;94.10;;;;;;5012715;28;20449;-50
2023/07/06 04:47:35;;;;;;;21.90;21.03;;;21.20;93.80;;;;;;5012434;28;20977;-50
2023/07/06 04:50:04;;;;;;;21.57;20.50;;;21.20;93.60;;;;;;5012873;28;21029;-51
2023/07/06 04:52:31;;;;;;;20.87;20.07;;;21.20;93.30;;;;;;5012698;28;20942;-50
2023/07/06 04:54:59;;;;;;;21.30;20.40;;;21.20;93.20;;;;;;5012523;28;20900;-50
2023/07/06 04:57:27;;;;;;;20.77;19.97;;;21.20;93.00;;;;;;5012246;28;20592;-51
2023/07/06 04:59:54;;;;;;;21.37;20.33;;;21.20;92.90;;;;;;5012519;28;20458;-50
2023/07/06 05:02:22;;;;;;;20.60;19.70;;;21.20;92.80;;;;;;5012489;28;20530;-50
2023/07/06 05:04:51;;;;;;;21.13;20.00;;;21.20;92.60;;;;;;5012394;28;20458;-51
2023/07/06 05:07:19;;;;;;;22.60;21.40;;;21.20;92.50;;;;;;5011934;28;20533;-50
2023/07/06 05:09:49;;;;;;;22.40;21.40;;;21.20;92.40;;;;;;5012339;28;20865;-50
2023/07/06 05:12:17;;;;;;;20.83;19.77;;;21.20;92.20;;;;;;5012194;28;20993;-50
2023/07/06 05:14:44;;;;;;;22.30;20.70;;;21.20;92.10;;;;;;5012262;28;20485;-50
2023/07/06 05:17:10;;;;;;;21.53;20.63;;;21.20;92.00;;;;;;5011699;28;20588;-51
2023/07/06 05:19:37;;;;;;;21.53;20.53;;;21.20;91.90;;;;;;5012193;28;20874;-53
2023/07/06 05:22:05;;;;;;;21.10;20.40;;;21.20;91.80;;;;;;5012165;28;20481;-51
2023/07/06 05:24:32;;;;;;;20.63;19.93;;;21.20;92.10;;;;;;5012132;28;20450;-50
2023/07/06 05:26:59;;;;;;;21.70;20.70;;;21.20;91.60;;;;;;5011769;28;20822;-52
2023/07/06 05:29:27;;;;;;;21.00;20.20;;;21.20;91.50;;;;;;5011960;28;20480;-51
2023/07/06 05:31:54;;;;;;;22.80;21.70;;;21.20;91.40;;;;;;5011936;28;20533;-52
2023/07/06 05:34:21;;;;;;;22.40;21.40;;;21.20;91.30;;;;;;5012035;28;20481;-50
2023/07/06 05:36:48;;;;;;;21.53;20.70;;;21.20;91.20;;;;;;5011474;28;20568;-50
2023/07/06 05:39:15;;;;;;;20.77;19.97;;;21.20;91.20;;;;;;5011811;28;20528;-50
2023/07/06 05:41:43;;;;;;;22.10;21.10;;;21.20;91.10;;;;;;5011900;28;20818;-51
2023/07/06 05:44:10;;;;;;;21.37;20.53;;;21.20;91.00;;;;;;5011828;28;20875;-51
2023/07/06 05:46:38;;;;;;;21.30;20.33;;;21.20;90.90;;;;;;5011541;28;20529;-51
2023/07/06 05:49:05;;;;;;;21.37;20.50;;;21.20;90.90;;;;;;5011352;28;20481;-54
2023/07/06 05:51:31;;;;;;;21.50;20.60;;;21.20;90.80;;;;;;5011597;28;20536;-51
2023/07/06 05:53:58;;;;;;;21.03;20.13;;;21.20;90.70;;;;;;5011745;28;20874;-52
2023/07/06 05:56:25;;;;;;;21.03;20.23;;;21.20;90.60;;;;;;5011247;28;20488;-51
2023/07/06 05:58:52;;;;;;;21.60;20.70;;;21.20;90.50;;;;;;5011609;28;20479;-53
2023/07/06 06:01:20;;;;;;;20.73;20.00;;;21.20;90.50;;;;;;5011635;28;20537;-53
2023/07/06 06:03:48;;;;;;;22.53;21.57;;;21.20;90.50;;;;;;5011857;28;20450;-54
2023/07/06 06:06:15;;;;;;;22.40;21.50;;;21.20;90.40;;;;;;5011382;28;20865;-51
2023/07/06 06:08:42;;;;;;;23.07;21.97;;;21.20;90.40;;;;;;5011609;28;20532;-52
2023/07/06 06:11:10;;;;;;;21.80;21.00;;;21.20;90.30;;;;;;5011556;28;20476;-52
2023/07/06 06:13:37;;;;;;;21.40;20.70;;;21.20;90.20;;;;;;5011524;28;20450;-51
2023/07/06 06:16:04;;;;;;;21.30;20.50;;;21.20;90.20;;;;;;5011411;28;20577;-51
2023/07/06 06:18:31;;;;;;;22.07;21.17;;;21.20;90.20;;;;;;5011328;28;20466;-53
2023/07/06 06:20:59;;;;;;;21.80;21.10;;;21.20;90.20;;;;;;5011405;28;20481;-52
2023/07/06 06:23:26;;;;;;;22.87;21.87;;;21.20;90.10;;;;;;5011430;28;20446;-51
2023/07/06 06:25:53;;;;;;;23.17;22.27;;;21.20;90.10;;;;;;5011481;28;20608;-54
2023/07/06 06:28:20;;;;;;;21.60;20.80;;;21.20;90.10;;;;;;5011107;28;20498;-56
2023/07/06 06:30:47;;;;;;;21.23;20.43;;;21.20;90.10;;;;;;5011465;28;20872;-54
2023/07/06 06:33:13;;;;;;;21.63;20.83;;;21.20;90.40;;;;;;5011622;28;20528;-53
2023/07/06 06:35:40;;;;;;;21.50;20.70;;;21.20;90.00;;;;;;5011304;28;20477;-53
2023/07/06 06:38:08;;;;;;;22.43;21.40;;;21.20;90.00;;;;;;5011031;28;20536;-55
2023/07/06 06:40:36;;;;;;;21.30;20.50;;;21.20;90.00;;;;;;5011355;28;20532;-55
2023/07/06 06:43:03;;;;;;;22.23;21.33;;;21.20;90.00;;;;;;5011380;28;20456;-53
2023/07/06 06:45:31;;;;;;;23.37;22.27;;;21.20;90.10;;;;;;5011247;28;20508;-53
2023/07/06 06:47:58;;;;;;;23.07;21.70;;;21.20;90.00;;;;;;5011029;28;20470;-53
2023/07/06 06:50:28;;;;;;;22.57;21.37;;;21.20;90.00;;;;;;5011171;28;20485;-52
2023/07/06 06:52:55;;;;;;;22.27;21.27;;;21.20;90.00;;;;;;5011616;28;20446;-55
2023/07/06 06:55:23;;;;;;;22.10;21.20;;;21.30;90.00;;;;;;5011321;28;20542;-54
2023/07/06 06:57:50;;;;;;;21.30;20.50;;;21.30;90.00;;;;;;5010779;28;20580;-54
2023/07/06 07:00:18;;;;;;;21.20;20.40;;;21.20;90.00;;;;;;5011589;28;20877;-51
2023/07/06 07:02:45;;;;;;;21.83;21.03;;;21.20;90.00;;;;;;5014706;28;20884;-54
2023/07/06 07:05:15;;;;;;;21.20;20.50;;;21.20;90.00;;;;;;5014564;28;20533;-54
2023/07/06 07:07:42;;;;;;;23.07;22.27;;;21.20;90.10;;;;;;5047334;23;21022;-62
2023/07/06 07:10:10;;;;;;;22.33;21.43;;;21.20;90.10;;;;;;5025954;28;20467;-63
2023/07/06 07:12:39;;;;;;;22.17;21.40;;;21.20;90.00;;;;;;5034097;28;20445;-59
2023/07/06 07:15:09;;;;;;;22.93;22.03;;;21.30;90.20;;;;;;5034187;28;20966;-63
2023/07/06 07:17:36;;;;;;;23.20;21.87;;;21.30;90.20;;;;;;5033819;28;20919;-55
2023/07/06 07:20:03;;;;;;;21.87;21.00;;;21.20;90.20;;;;;;5034345;28;20536;-59
2023/07/06 07:22:30;;;;;;;23.80;22.90;;;21.30;90.20;;;;;;5034096;28;20833;-61
2023/07/06 07:24:58;;;;;;;22.60;21.70;;;21.30;90.20;;;;;;5033994;28;20932;-57
2023/07/06 07:27:25;;;;;;;23.13;22.23;;;21.20;90.20;;;;;;5033577;28;20471;-60
2023/07/06 07:29:54;;;;;;;22.10;21.20;;;21.30;90.20;;;;;;5034079;28;20449;-58
2023/07/06 07:32:21;;;;;;;22.70;21.70;;;21.20;90.30;;;;;;5033834;28;20812;-59
2023/07/06 07:34:50;;;;;;;22.97;22.10;;;21.20;90.30;;;;;;5033882;28;20532;-59
2023/07/06 07:37:18;;;;;;;25.23;24.13;;;21.20;90.30;;;;;;5033358;28;20567;-59
2023/07/06 07:39:45;;;;;;;24.07;23.00;;;21.30;90.30;;;;;;5034077;28;20748;-59
2023/07/06 07:42:12;;;;;;;23.33;22.33;;;21.30;90.40;;;;;;5033697;28;20464;-62
2023/07/06 07:44:39;;;;;;;24.70;23.50;;;21.20;90.30;;;;;;5033590;28;20541;-61
2023/07/06 07:47:08;;;;;;;22.70;21.80;;;21.30;90.40;;;;;;5033274;28;20545;-61
2023/07/06 07:49:35;;;;;;;23.87;22.97;;;21.30;90.40;;;;;;5033508;28;20489;-53
2023/07/06 07:52:02;;;;;;;23.47;22.50;;;21.30;90.30;;;;;;5033951;28;20461;-53
2023/07/06 07:54:29;;;;;;;23.10;22.23;;;21.30;90.30;;;;;;5033478;28;20473;-57
2023/07/06 07:56:56;;;;;;;23.13;22.23;;;21.30;90.40;;;;;;5033336;28;20484;-57
2023/07/06 07:59:24;;;;;;;23.80;22.90;;;21.30;90.50;;;;;;5033421;28;20504;-57
2023/07/06 08:01:51;;;;;;;24.43;23.57;;;21.30;90.60;;;;;;5033319;28;20456;-56
2023/07/06 08:04:21;;;;;;;23.30;22.40;;;21.30;90.60;;;;;;5033117;28;20451;-52
2023/07/06 08:06:48;;;;;;;22.50;21.60;;;21.30;90.70;;;;;;5033112;28;20451;-58
2023/07/06 08:09:14;;;;;;;21.90;20.97;;;21.30;90.60;;;;;;5033069;28;20543;-59
2023/07/06 08:11:46;;;;;;;22.83;21.93;;;21.30;90.70;;;;;;5032958;28;20472;-57
2023/07/06 08:14:14;;;;;;;23.40;22.43;;;21.30;90.80;;;;;;5033144;28;20533;-58
2023/07/06 08:16:41;;;;;;;22.80;21.90;;;21.30;90.80;;;;;;5032861;28;20918;-59
2023/07/06 08:19:08;;;;;;;24.13;23.07;;;21.30;90.70;;;;;;5033048;28;20461;-57
2023/07/06 08:21:36;;;;;;;23.30;22.23;;;21.30;90.70;;;;;;5032902;28;20828;-57
2023/07/06 08:24:03;;;;;;;24.20;23.20;;;21.30;90.70;;;;;;5032964;28;20797;-58
2023/07/06 08:26:31;;;;;;;22.63;21.63;;;21.30;90.70;;;;;;5032587;28;20445;-59
2023/07/06 08:28:58;;;;;;;22.93;22.03;;;21.30;91.00;;;;;;5032648;28;20827;-58
2023/07/06 08:31:26;;;;;;;22.87;21.83;;;21.30;90.70;;;;;;5032739;28;21036;-59
2023/07/06 08:33:53;;;;;;;22.50;21.70;;;21.30;90.80;;;;;;5032991;28;20449;-55
2023/07/06 08:36:21;;;;;;;23.23;22.27;;;21.30;90.70;;;;;;5032476;28;20447;-58
2023/07/06 08:38:49;;;;;;;23.40;22.50;;;21.30;90.70;;;;;;5032478;28;20571;-59
2023/07/06 08:41:26;;;;;;;22.47;21.50;;;21.30;90.60;;;;;;5032659;28;20476;-57
2023/07/06 08:43:54;;;;;;;21.17;20.37;;;21.30;90.50;;;;;;5032711;28;20449;-57
2023/07/06 08:46:22;;;;;;;21.90;21.00;;;21.30;90.50;;;;;;5032326;28;20456;-58
2023/07/06 08:48:50;;;;;;;22.00;21.10;;;21.30;90.50;;;;;;5032598;28;20549;-59
2023/07/06 08:51:22;;;;;;;21.90;21.03;;;21.30;90.60;;;;;;5032458;28;20457;-61
2023/07/06 08:53:54;;;;;;;22.97;22.07;;;21.30;90.50;;;;;;5032428;28;20457;-61
2023/07/06 08:56:25;;;;;;;22.90;21.97;;;21.30;90.40;;;;;;5032432;28;20453;-58
2023/07/06 08:58:54;;;;;;;23.80;22.90;;;21.30;90.40;;;;;;5032156;28;20580;-56
2023/07/06 09:01:24;;;;;;;22.87;21.77;;;21.30;90.40;;;;;;5032204;28;20453;-59
2023/07/06 09:03:55;;;;;;;22.00;21.00;;;21.30;90.40;;;;;;5032184;28;20536;-57
2023/07/06 09:06:26;;;;;;;21.83;21.03;;;21.40;90.40;;;;;;5032004;28;20449;-55
2023/07/06 09:08:56;;;;;;;23.10;22.10;;;21.40;90.40;;;;;;5032182;28;20476;-61
2023/07/06 09:11:23;;;;;;;22.30;21.40;;;21.40;90.40;;;;;;5032139;28;20524;-56
2023/07/06 09:13:55;;;;;;;21.93;21.10;;;21.40;90.40;;;;;;5032104;28;20445;-58
2023/07/06 09:16:25;;;;;;;21.90;21.00;;;21.40;90.50;;;;;;5031890;28;20445;-59
2023/07/06 09:18:53;;;;;;;21.67;20.80;;;21.40;90.40;;;;;;5031883;28;20568;-57
2023/07/06 09:21:22;;;;;;;22.37;21.47;;;21.30;90.40;;;;;;5031904;28;20453;-52
2023/07/06 09:23:49;;;;;;;22.67;21.80;;;21.40;90.50;;;;;;5031269;28;20825;-58
2023/07/06 09:26:23;;;;;;;24.03;23.03;;;21.40;90.40;;;;;;5031967;28;20445;-59
2023/07/06 09:28:51;;;;;;;22.40;21.50;;;21.40;90.40;;;;;;5031625;28;20457;-57
2023/07/06 09:31:21;;;;;;;22.87;21.90;;;21.40;90.40;;;;;;5031632;28;20538;-59
2023/07/06 09:33:49;;;;;;;22.30;21.50;;;21.40;90.40;;;;;;5031679;28;20499;-52
2023/07/06 09:36:19;;;;;;;22.93;22.03;;;21.40;90.30;;;;;;5031461;28;20528;-58
2023/07/06 09:38:47;;;;;;;23.07;22.07;;;21.40;90.20;;;;;;5031400;28;20599;-59
2023/07/06 09:41:23;;;;;;;23.23;22.33;;;21.40;90.10;;;;;;5031774;28;20529;-56
2023/07/06 09:43:57;;;;;;;22.50;21.70;;;21.40;90.00;;;;;;5031502;28;20548;-59
2023/07/06 09:46:27;;;;;;;21.83;21.00;;;21.40;90.00;;;;;;5031349;28;20444;-59
2023/07/06 09:48:54;;;;;;;21.90;21.10;;;21.40;90.00;;;;;;5031482;28;20544;-52
2023/07/06 09:51:26;;;;;;;22.73;21.93;;;21.40;89.90;;;;;;5031479;28;20528;-54
2023/07/06 09:53:59;;;;;;;22.20;21.40;;;21.50;89.90;;;;;;5031468;28;20901;-59
2023/07/06 09:56:29;;;;;;;23.40;22.40;;;21.50;89.60;;;;;;5031307;28;20528;-56
2023/07/06 09:58:56;;;;;;;22.87;21.90;;;21.40;89.00;;;;;;5031110;28;21002;-55
2023/07/06 10:01:34;;;;;;;21.60;20.80;;;21.40;88.60;;;;;;5031300;28;20532;-59
2023/07/06 10:04:27;;;;;;;22.43;21.53;;;21.50;88.30;;;;;;5031410;28;20535;-58
2023/07/06 10:07:06;;;;;;;21.40;20.70;;;21.50;88.00;;;;;;5031042;28;20510;-58
2023/07/06 10:09:37;;;;;;;21.77;20.77;;;21.50;88.00;;;;;;5031254;28;20480;-52
2023/07/06 10:12:16;;;;;;;21.80;21.00;;;21.50;87.80;;;;;;5031338;28;20477;-61
2023/07/06 10:14:48;;;;;;;22.43;21.63;;;21.50;87.30;;;;;;5031238;28;20499;-58
2023/07/06 10:17:35;;;;;;;22.20;21.37;;;21.50;86.90;;;;;;5031136;28;20540;-57
2023/07/06 10:20:10;;;;;;;21.40;20.70;;;21.50;86.60;;;;;;5031333;28;20448;-56
2023/07/06 10:22:45;;;;;;;21.70;20.80;;;21.50;86.20;;;;;;5031094;28;20483;-61
2023/07/06 10:25:22;;;;;;;21.57;20.77;;;21.60;86.20;;;;;;5031128;28;21007;-53
2023/07/06 10:27:56;;;;;;;21.03;20.33;;;21.60;85.90;;;;;;5030770;28;20556;-61
2023/07/06 10:30:27;;;;;;;20.17;19.47;;;21.60;85.40;;;;;;5031026;28;20528;-61
2023/07/06 10:32:57;;;;;;;21.17;20.30;;;21.50;85.00;;;;;;5031018;28;20536;-59
2023/07/06 10:35:27;;;;;;;21.30;20.50;;;21.60;83.80;;;;;;5031667;28;20444;-61
2023/07/06 10:37:56;;;;;;;21.80;21.00;;;21.50;82.80;;;;;;5034421;28;20932;-58
2023/07/06 10:40:25;;;;;;;21.40;20.70;;;21.50;82.00;;;;;;5035005;28;20449;-51
2023/07/06 10:43:12;;;;;;;21.60;20.70;;;21.60;81.60;;;;;;5035030;28;20817;-57
2023/07/06 10:45:45;;;;;;;22.10;21.30;;;21.60;80.70;;;;;;5034995;28;20440;-56
2023/07/06 10:48:15;;;;;;;22.23;21.33;;;21.60;80.00;;;;;;5034758;28;20888;-56
2023/07/06 10:50:50;;;;;;;22.20;21.30;;;21.60;79.30;;;;;;5034679;28;21012;-58
2023/07/06 10:53:25;;;;;;;22.27;21.50;;;21.60;79.00;;;;;;5035015;28;20444;-57
2023/07/06 10:56:05;;;;;;;22.33;21.53;;;21.60;78.50;;;;;;5034823;28;20854;-54
2023/07/06 10:58:35;;;;;;;22.13;21.33;;;21.60;78.30;;;;;;5034553;28;21079;-54
2023/07/06 11:01:08;;;;;;;21.00;20.30;;;21.60;77.90;;;;;;5034605;28;20870;-58
2023/07/06 11:03:35;;;;;;;21.30;20.40;;;21.60;77.90;;;;;;5034401;28;20528;-54
2023/07/06 11:06:06;;;;;;;21.30;20.60;;;21.60;77.80;;;;;;5034426;28;20871;-60
2023/07/06 11:09:22;;;;;;;23.00;22.20;;;21.60;77.50;;;;;;5034134;28;20468;-60
2023/07/06 11:12:05;;;;;;;21.00;20.30;;;21.60;76.50;;;;;;5034321;28;20528;-57
2023/07/06 11:14:44;;;;;;;21.60;20.80;;;21.70;76.90;;;;;;5033119;28;20480;-54
2023/07/06 11:17:18;;;;;;;22.60;21.70;;;21.70;76.40;;;;;;5033926;28;20931;-60
2023/07/06 11:19:52;;;;;;;22.13;21.33;;;21.70;75.60;;;;;;5034206;28;20527;-58
2023/07/06 11:22:24;;;;;;;22.03;21.30;;;21.70;75.30;;;;;;5034196;28;20571;-60
2023/07/06 11:24:54;;;;;;;22.30;21.50;;;21.70;74.60;;;;;;5034060;28;20445;-57
2023/07/06 11:27:25;;;;;;;22.13;21.33;;;21.70;74.30;;;;;;5034016;28;20474;-58
2023/07/06 11:30:02;;;;;;;22.47;21.67;;;21.70;74.50;;;;;;5034161;28;20506;-58
2023/07/06 11:32:36;;;;;;;22.83;21.93;;;21.70;73.80;;;;;;5034040;28;20932;-57
2023/07/06 11:35:25;;;;;;;21.53;20.83;;;21.70;73.90;;;;;;5033820;28;20811;-59
2023/07/06 11:38:13;;;;;;;21.80;21.10;;;21.70;74.30;;;;;;5033626;28;20528;-60
2023/07/06 11:41:01;;;;;;;22.00;21.20;;;21.80;74.30;;;;;;5033951;28;20453;-57
2023/07/06 11:43:38;;;;;;;21.87;21.07;;;21.80;73.70;;;;;;5033692;28;20786;-59
2023/07/06 11:46:22;;;;;;;21.70;21.00;;;21.80;73.70;;;;;;5033026;28;20441;-59
2023/07/06 11:49:02;;;;;;;22.33;21.43;;;21.80;73.90;;;;;;5033456;28;20493;-57
2023/07/06 11:51:31;;;;;;;21.70;21.00;;;21.80;73.80;;;;;;5033706;28;20536;-58
2023/07/06 11:54:01;;;;;;;22.40;21.70;;;21.80;73.50;;;;;;5033566;28;20499;-56
2023/07/06 11:56:39;;;;;;;22.00;21.27;;;21.80;73.20;;;;;;5033358;28;20440;-58
2023/07/06 11:59:25;;;;;;;22.10;21.40;;;21.80;72.10;;;;;;5033174;28;20498;-57
2023/07/06 12:01:57;;;;;;;23.57;22.63;;;21.90;72.90;;;;;;5033395;28;20452;-57
2023/07/06 12:04:26;;;;;;;22.60;21.80;;;21.90;72.40;;;;;;5033436;28;20871;-59
2023/07/06 12:06:54;;;;;;;21.90;21.20;;;21.90;72.30;;;;;;5032796;28;20805;-56
2023/07/06 12:09:23;;;;;;;24.00;23.10;;;21.90;72.60;;;;;;5033144;28;20449;-55
2023/07/06 12:12:01;;;;;;;21.83;21.13;;;21.90;72.20;;;;;;5033035;28;20457;-58
2023/07/06 12:14:29;;;;;;;21.73;21.03;;;21.90;72.40;;;;;;5033169;28;21007;-57
2023/07/06 12:16:58;;;;;;;21.40;20.70;;;21.90;72.90;;;;;;5032862;28;20445;-54
2023/07/06 12:19:25;;;;;;;22.43;21.63;;;22.00;72.90;;;;;;5032966;28;20821;-58
2023/07/06 12:21:54;;;;;;;22.83;22.03;;;22.00;72.40;;;;;;5033070;28;20484;-56
2023/07/06 12:24:23;;;;;;;22.73;22.03;;;22.00;71.10;;;;;;5033231;28;20484;-57
2023/07/06 12:26:52;;;;;;;21.80;21.10;;;22.00;71.20;;;;;;5032818;28;20540;-54
2023/07/06 12:29:23;;;;;;;23.23;22.43;;;22.00;71.00;;;;;;5032691;28;20469;-58
2023/07/06 12:31:51;;;;;;;24.10;23.30;;;22.00;70.80;;;;;;5032829;28;20709;-53
2023/07/06 12:34:27;;;;;;;22.80;22.00;;;22.00;70.80;;;;;;5032874;28;20488;-56
2023/07/06 12:36:56;;;;;;;21.90;21.20;;;22.00;72.00;;;;;;5032495;28;20473;-55
2023/07/06 12:39:23;;;;;;;21.80;21.10;;;22.10;72.30;;;;;;5032512;28;21003;-59
2023/07/06 12:41:53;;;;;;;22.17;21.47;;;22.10;71.60;;;;;;5032498;28;20988;-57